Time;durP1;ratioP1;P1;durP2;ratioP2;P2;SDS_P1;SDS_P2;PMS_P1;PMS_P2;Temp;Humidity;BMP_temperature;BMP_pressure;BME280_temperature;BME280_humidity;BME280_pressure;Samples;Min_cycle;Max_cycle;Signal;HPM_P1;HPM_P2
2023/09/15 00:01:06;;;;;;;7.28;4.38;;;;;;;11.55;74.57;101705.19;7394179;19;20486;-70
2023/09/15 00:03:35;;;;;;;8.82;4.88;;;;;;;11.51;74.72;101709.63;7393346;19;20047;-69
2023/09/15 00:06:04;;;;;;;5.13;3.83;;;;;;;11.47;74.57;101707.91;7392381;19;20066;-70
2023/09/15 00:08:33;;;;;;;10.68;6.90;;;;;;;11.45;74.59;101706.19;7394349;19;20066;-70
2023/09/15 00:11:03;;;;;;;10.05;5.10;;;;;;;11.44;74.88;101702.69;7392341;19;20031;-70
2023/09/15 00:13:34;;;;;;;8.02;5.32;;;;;;;11.43;74.94;101706.19;7393185;19;20015;-70
2023/09/15 00:16:03;;;;;;;6.15;3.67;;;;;;;11.42;74.92;101707.09;7392768;19;20017;-70
2023/09/15 00:18:31;;;;;;;7.13;3.60;;;;;;;11.41;75.01;101713.22;7392756;19;20086;-69
2023/09/15 00:20:59;;;;;;;4.63;3.85;;;;;;;11.39;75.13;101718.50;7401139;19;20006;-69
2023/09/15 00:23:28;;;;;;;9.02;5.15;;;;;;;11.37;75.09;101714.13;7399698;19;20365;-69
2023/09/15 00:25:56;;;;;;;8.07;5.72;;;;;;;11.35;75.14;101715.94;7401413;19;20070;-70
2023/09/15 00:28:25;;;;;;;7.93;5.05;;;;;;;11.32;75.27;101715.94;7401290;19;20078;-70
2023/09/15 00:30:56;;;;;;;8.23;5.43;;;;;;;11.30;75.37;101721.22;7400817;19;20007;-69
2023/09/15 00:33:24;;;;;;;7.05;3.83;;;;;;;11.29;75.54;101718.63;7399737;19;20561;-69
2023/09/15 00:35:52;;;;;;;4.72;3.88;;;;;;;11.26;75.56;101714.25;7398666;19;20419;-71
2023/09/15 00:38:21;;;;;;;8.27;4.00;;;;;;;11.22;75.45;101718.66;7400941;19;20018;-70
2023/09/15 00:40:50;;;;;;;6.82;3.72;;;;;;;11.20;75.74;101714.31;7400879;19;20010;-69
2023/09/15 00:43:18;;;;;;;6.63;3.88;;;;;;;11.17;75.82;101715.22;7399905;19;20078;-68
2023/09/15 00:45:47;;;;;;;5.90;3.50;;;;;;;11.13;75.74;101713.47;7400700;19;20078;-69
2023/09/15 00:48:18;;;;;;;5.82;3.45;;;;;;;11.12;75.78;101710.88;7397569;19;20007;-69
2023/09/15 00:50:47;;;;;;;5.63;3.83;;;;;;;11.08;75.80;101704.75;7400199;19;20492;-69
2023/09/15 00:53:19;;;;;;;3.78;3.20;;;;;;;11.05;75.77;101708.28;7399075;19;20087;-70
2023/09/15 00:55:51;;;;;;;5.03;3.58;;;;;;;11.03;75.70;101706.56;7398935;19;20019;-70
2023/09/15 00:58:21;;;;;;;4.80;3.63;;;;;;;11.00;75.81;101709.22;7400811;19;20011;-69
2023/09/15 01:00:51;;;;;;;8.70;3.30;;;;;;;10.97;75.96;101704.88;7400294;19;20023;-69
2023/09/15 01:03:24;;;;;;;5.25;3.20;;;;;;;10.95;76.03;101716.28;7399277;19;20431;-69
2023/09/15 01:05:53;;;;;;;5.22;3.22;;;;;;;10.91;76.10;101710.16;7399838;19;20411;-69
2023/09/15 01:08:22;;;;;;;4.55;3.22;;;;;;;10.87;76.16;101714.56;7399623;19;20015;-69
2023/09/15 01:10:51;;;;;;;7.43;3.72;;;;;;;10.82;76.33;101713.72;7399586;19;20030;-69
2023/09/15 01:13:19;;;;;;;5.35;3.35;;;;;;;10.79;76.25;101713.72;7399611;19;20074;-70
2023/09/15 01:15:57;;;;;;;3.50;2.80;;;;;;;10.74;76.35;101715.53;7397807;19;20553;-70
2023/09/15 01:18:33;;;;;;;5.25;3.33;;;;;;;10.68;76.19;101716.44;7397373;19;20531;-70
2023/09/15 01:21:36;;;;;;;3.55;2.80;;;;;;;10.62;76.16;101710.38;7399333;19;20553;-70
2023/09/15 01:24:46;;;;;;;4.20;2.78;;;;;;;10.56;76.28;101706.03;7397524;19;20085;-70
2023/09/15 01:27:46;;;;;;;4.15;3.03;;;;;;;10.50;76.31;101704.31;7398716;19;20078;-70
2023/09/15 01:30:18;;;;;;;3.22;2.58;;;;;;;10.46;76.28;101702.56;7396017;19;20017;-71
2023/09/15 01:32:47;;;;;;;3.65;2.78;;;;;;;10.43;76.29;101702.59;7399284;19;20014;-70
2023/09/15 01:35:15;;;;;;;4.97;3.00;;;;;;;10.38;76.37;101702.63;7398193;19;20010;-70
2023/09/15 01:37:44;;;;;;;4.70;3.20;;;;;;;10.36;76.50;101708.75;7399109;19;20078;-70
2023/09/15 01:40:19;;;;;;;6.38;3.63;;;;;;;10.33;76.67;101699.13;7396709;19;20015;-70
2023/09/15 01:42:53;;;;;;;3.75;2.90;;;;;;;10.31;76.86;101698.25;7398479;19;20015;-70
2023/09/15 01:45:30;;;;;;;4.47;2.95;;;;;;;10.28;76.91;101701.75;7396268;19;20010;-70
2023/09/15 01:47:59;;;;;;;3.58;3.20;;;;;;;10.25;76.92;101707.03;7397095;19;20155;-70
2023/09/15 01:50:31;;;;;;;3.80;3.00;;;;;;;10.24;76.90;101704.44;7398196;19;20546;-69
2023/09/15 01:52:59;;;;;;;3.55;2.90;;;;;;;10.18;76.99;101693.97;7397709;19;20017;-70
2023/09/15 01:55:29;;;;;;;3.45;3.03;;;;;;;10.23;77.23;101707.94;7397439;19;20078;-69
2023/09/15 01:57:57;;;;;;;5.00;3.13;;;;;;;10.24;77.27;101713.16;7398445;19;20070;-69
2023/09/15 02:00:35;;;;;;;5.55;3.03;;;;;;;10.24;77.48;101697.41;7397908;19;20359;-69
2023/09/15 02:03:03;;;;;;;4.03;3.00;;;;;;;10.24;77.58;101701.81;7396232;19;20082;-70
2023/09/15 02:05:32;;;;;;;6.10;3.28;;;;;;;10.24;77.64;101713.16;7398139;19;20014;-70
2023/09/15 02:08:00;;;;;;;5.82;3.50;;;;;;;10.22;77.66;101707.06;7398107;19;20027;-70
2023/09/15 02:10:28;;;;;;;6.43;3.45;;;;;;;10.19;77.78;101712.31;7397592;19;20644;-69
2023/09/15 02:12:57;;;;;;;5.22;2.95;;;;;;;10.20;77.71;101710.56;7397462;19;20082;-69
2023/09/15 02:15:25;;;;;;;6.20;3.30;;;;;;;10.19;77.72;101707.06;7396954;19;20025;-70
2023/09/15 02:18:00;;;;;;;3.90;3.15;;;;;;;10.18;77.82;101707.09;7396006;19;20090;-70
2023/09/15 02:20:29;;;;;;;8.05;3.38;;;;;;;10.13;77.84;101707.09;7400345;19;20019;-71
2023/09/15 02:23:03;;;;;;;5.25;2.92;;;;;;;10.13;77.94;101701.84;7400840;19;20027;-70
2023/09/15 02:25:32;;;;;;;5.25;3.15;;;;;;;10.10;77.95;101709.75;7399662;19;20015;-71
2023/09/15 02:28:02;;;;;;;3.90;2.90;;;;;;;10.08;77.89;101706.25;7398611;19;20070;-70
2023/09/15 02:30:30;;;;;;;7.05;3.63;;;;;;;10.03;77.84;101697.53;7397157;19;20010;-70
2023/09/15 02:33:01;;;;;;;5.85;3.08;;;;;;;10.02;77.77;101703.63;7396131;19;20085;-70
2023/09/15 02:35:30;;;;;;;4.90;3.28;;;;;;;9.97;77.74;101701.06;7396845;19;20042;-70
2023/09/15 02:37:59;;;;;;;4.32;3.00;;;;;;;9.93;77.84;101700.19;7396877;19;20010;-70
2023/09/15 02:40:27;;;;;;;5.75;3.67;;;;;;;9.89;77.91;101706.31;7396745;19;20070;-70
2023/09/15 02:42:56;;;;;;;5.00;3.08;;;;;;;9.87;78.02;101709.81;7395553;19;20014;-70
2023/09/15 02:45:24;;;;;;;4.50;3.08;;;;;;;9.84;77.83;101704.59;7396749;19;20069;-70
2023/09/15 02:47:53;;;;;;;4.50;3.10;;;;;;;9.80;77.70;101708.09;7396458;19;20486;-70
2023/09/15 02:50:24;;;;;;;4.45;2.50;;;;;;;9.74;77.75;101703.75;7396577;19;20015;-70
2023/09/15 02:52:52;;;;;;;3.80;2.40;;;;;;;9.70;77.57;101702.88;7397396;19;20070;-70
2023/09/15 02:55:21;;;;;;;2.88;2.58;;;;;;;9.66;77.61;101698.53;7395986;19;20077;-70
2023/09/15 02:57:52;;;;;;;4.82;2.80;;;;;;;9.60;77.50;101691.56;7396315;19;20082;-69
2023/09/15 03:00:21;;;;;;;5.63;3.10;;;;;;;9.55;77.62;101693.28;7396741;19;20078;-70
2023/09/15 03:02:50;;;;;;;4.15;3.20;;;;;;;9.50;77.53;101695.06;7395984;19;20066;-71
2023/09/15 03:05:18;;;;;;;5.53;3.63;;;;;;;9.45;77.57;101688.94;7395638;19;20159;-71
2023/09/15 03:07:50;;;;;;;4.25;2.75;;;;;;;9.43;77.48;101693.34;7396096;19;20014;-69
2023/09/15 03:10:18;;;;;;;4.38;2.70;;;;;;;9.38;77.60;101689.88;7396254;19;20028;-68
2023/09/15 03:12:46;;;;;;;2.92;2.30;;;;;;;9.37;77.58;101691.59;7393671;19;20010;-70
2023/09/15 03:15:12;;;;;;;4.05;2.50;;;;;;;9.37;77.62;101703.81;7395424;19;20077;-69
2023/09/15 03:17:41;;;;;;;4.75;2.65;;;;;;;9.36;77.71;101691.59;7394385;19;20464;-69
2023/09/15 03:20:13;;;;;;;3.33;2.63;;;;;;;9.34;77.78;101688.09;7395606;19;20066;-70
2023/09/15 03:22:42;;;;;;;4.03;2.60;;;;;;;9.33;77.80;101687.25;7395529;19;20415;-70
2023/09/15 03:25:14;;;;;;;4.03;3.00;;;;;;;9.34;77.84;101689.00;7394774;19;20015;-70
2023/09/15 03:27:42;;;;;;;3.95;2.35;;;;;;;9.34;77.97;101683.75;7395494;19;20010;-70
2023/09/15 03:30:12;;;;;;;4.70;2.60;;;;;;;9.36;77.94;101691.59;7394848;19;20474;-70
2023/09/15 03:32:40;;;;;;;4.20;2.80;;;;;;;9.37;78.00;101698.59;7394592;19;20028;-70
2023/09/15 03:35:09;;;;;;;2.65;2.30;;;;;;;9.38;77.95;101690.72;7394899;19;20014;-70
2023/09/15 03:37:38;;;;;;;4.03;3.10;;;;;;;9.37;77.93;101683.72;7395114;19;20074;-70
2023/09/15 03:40:08;;;;;;;5.40;2.90;;;;;;;9.37;78.11;101688.97;7394337;19;20499;-70
2023/09/15 03:42:40;;;;;;;3.47;2.58;;;;;;;9.37;78.04;101691.59;7392580;19;20513;-70
2023/09/15 03:45:09;;;;;;;6.03;3.53;;;;;;;9.37;78.23;101685.50;7394975;19;20027;-70
2023/09/15 03:47:38;;;;;;;8.50;2.65;;;;;;;9.35;78.22;101680.25;7394848;19;20010;-70
2023/09/15 03:50:09;;;;;;;5.03;2.80;;;;;;;9.34;78.05;101685.47;7395108;19;20074;-70
2023/09/15 03:52:38;;;;;;;4.57;2.47;;;;;;;9.31;78.11;101683.75;7394780;19;20025;-70
2023/09/15 03:55:07;;;;;;;4.15;2.80;;;;;;;9.28;78.30;101691.63;7399582;19;20007;-70
2023/09/15 03:57:36;;;;;;;5.53;2.55;;;;;;;9.24;78.12;101688.13;7401839;19;20499;-70
2023/09/15 04:00:11;;;;;;;6.80;3.13;;;;;;;9.18;78.20;101688.13;7401655;19;20010;-70
2023/09/15 04:02:39;;;;;;;6.43;4.03;;;;;;;9.13;78.21;101682.03;7402254;19;20031;-70
2023/09/15 04:05:10;;;;;;;4.68;2.58;;;;;;;9.10;78.09;101687.28;7401350;19;20502;-70
2023/09/15 04:07:38;;;;;;;4.47;2.70;;;;;;;9.04;78.12;101684.66;7399582;19;20455;-70
2023/09/15 04:10:07;;;;;;;6.50;4.70;;;;;;;9.01;78.05;101687.25;7401770;19;20011;-71
2023/09/15 04:12:36;;;;;;;4.57;2.95;;;;;;;8.96;78.23;101685.53;7401708;19;20029;-69
2023/09/15 04:15:10;;;;;;;6.07;3.83;;;;;;;8.92;78.18;101694.25;7398819;19;20010;-70
2023/09/15 04:17:39;;;;;;;4.15;2.72;;;;;;;8.89;78.14;101685.53;7397569;19;20485;-70
2023/09/15 04:20:09;;;;;;;3.97;2.38;;;;;;;8.87;78.19;101696.00;7401005;19;20019;-70
2023/09/15 04:22:38;;;;;;;5.95;2.50;;;;;;;8.87;78.35;101695.09;7401424;19;20019;-70
2023/09/15 04:25:08;;;;;;;4.10;2.47;;;;;;;8.83;77.99;101691.59;7401399;19;20031;-70
2023/09/15 04:27:37;;;;;;;3.17;2.33;;;;;;;8.83;78.47;101682.91;7398240;19;20032;-70
2023/09/15 04:30:09;;;;;;;3.97;2.75;;;;;;;8.82;78.45;101689.00;7400727;19;20027;-70
2023/09/15 04:32:38;;;;;;;4.53;2.80;;;;;;;8.79;78.45;101688.13;7400725;19;20030;-70
2023/09/15 04:35:08;;;;;;;4.35;2.70;;;;;;;8.78;78.39;101688.13;7400407;19;20343;-70
2023/09/15 04:37:37;;;;;;;3.38;2.70;;;;;;;8.77;78.60;101694.22;7398677;19;20066;-70
2023/09/15 04:40:06;;;;;;;3.42;2.63;;;;;;;8.72;78.59;101693.34;7400461;19;20031;-70
2023/09/15 04:42:40;;;;;;;3.13;2.70;;;;;;;8.75;78.68;101704.69;7400112;19;20070;-71
2023/09/15 04:45:11;;;;;;;9.48;3.03;;;;;;;8.76;78.62;101697.72;7400741;19;20039;-70
2023/09/15 04:47:41;;;;;;;6.15;3.00;;;;;;;8.75;78.76;101694.22;7399968;19;20014;-69
2023/09/15 04:50:11;;;;;;;6.80;2.92;;;;;;;8.77;78.70;101695.09;7399724;19;20018;-70
2023/09/15 04:52:39;;;;;;;5.38;2.95;;;;;;;8.77;79.00;101699.44;7396932;19;20078;-70
2023/09/15 04:55:08;;;;;;;5.20;3.15;;;;;;;8.80;79.14;101702.09;7399651;19;20027;-72
2023/09/15 04:57:37;;;;;;;4.78;2.90;;;;;;;8.80;79.23;101697.72;7397608;19;20042;-70
2023/09/15 05:00:12;;;;;;;4.72;3.22;;;;;;;8.82;79.32;101689.00;7397290;19;20022;-70
2023/09/15 05:02:45;;;;;;;4.57;2.80;;;;;;;8.83;79.54;101686.38;7398654;19;20351;-70
2023/09/15 05:05:13;;;;;;;6.78;2.88;;;;;;;8.83;79.51;101690.75;7398809;19;20010;-71
2023/09/15 05:07:42;;;;;;;3.58;2.75;;;;;;;8.85;79.70;101697.72;7395689;19;20027;-70
2023/09/15 05:10:11;;;;;;;4.97;3.25;;;;;;;8.88;79.76;101695.09;7398447;19;20015;-70
2023/09/15 05:12:39;;;;;;;4.90;3.30;;;;;;;8.89;79.73;101698.59;7398513;19;20068;-70
2023/09/15 05:15:10;;;;;;;6.95;3.85;;;;;;;8.91;79.84;101695.13;7398406;19;20019;-70
2023/09/15 05:17:38;;;;;;;6.38;3.80;;;;;;;8.94;80.20;101694.25;7396817;19;20014;-69
2023/09/15 05:20:11;;;;;;;7.72;4.10;;;;;;;8.96;80.34;101690.75;7398690;19;20075;-71
2023/09/15 05:22:39;;;;;;;5.38;4.13;;;;;;;9.00;80.38;101688.13;7398845;19;20231;-70
2023/09/15 05:25:09;;;;;;;6.68;3.78;;;;;;;9.01;80.69;101693.38;7397283;19;20060;-70
2023/09/15 05:27:37;;;;;;;6.50;2.97;;;;;;;9.03;80.63;101689.00;7398344;19;20387;-70
2023/09/15 05:30:07;;;;;;;3.35;2.80;;;;;;;9.03;80.44;101694.22;7398426;19;20023;-69
2023/09/15 05:32:36;;;;;;;4.30;3.15;;;;;;;9.01;80.20;101690.75;7398258;19;20014;-70
2023/09/15 05:35:04;;;;;;;6.47;3.08;;;;;;;9.00;80.14;101699.47;7398361;19;20022;-70
2023/09/15 05:37:35;;;;;;;7.70;3.42;;;;;;;9.00;80.08;101703.81;7395872;19;20372;-69
2023/09/15 05:40:04;;;;;;;5.03;3.35;;;;;;;8.99;80.06;101702.97;7397904;19;20022;-68
2023/09/15 05:42:32;;;;;;;5.25;3.17;;;;;;;8.99;79.92;101707.34;7397531;19;20018;-69
2023/09/15 05:45:01;;;;;;;4.60;3.20;;;;;;;8.96;79.51;101713.44;7397321;19;20028;-68
2023/09/15 05:47:29;;;;;;;5.97;4.45;;;;;;;9.01;79.43;101714.31;7395497;19;20481;-68
2023/09/15 05:50:00;;;;;;;5.82;3.08;;;;;;;9.03;79.23;101715.19;7398991;19;20039;-69
2023/09/15 05:52:29;;;;;;;4.05;2.95;;;;;;;9.04;79.34;101716.06;7398698;19;20015;-70
2023/09/15 05:55:00;;;;;;;3.97;2.85;;;;;;;9.06;79.16;101709.06;7397529;19;20376;-69
2023/09/15 05:57:28;;;;;;;4.90;2.70;;;;;;;9.08;79.18;101712.56;7395834;19;20510;-69
2023/09/15 06:00:04;;;;;;;5.07;3.05;;;;;;;9.09;79.09;101716.94;7397446;19;20022;-71
2023/09/15 06:02:54;;;;;;;6.25;3.38;;;;;;;9.11;79.11;101712.56;7397680;19;20014;-68
2023/09/15 06:05:25;;;;;;;7.07;3.42;;;;;;;9.13;78.95;101716.91;7397164;19;20031;-68
2023/09/15 06:07:54;;;;;;;4.22;2.80;;;;;;;9.17;79.03;101717.78;7397989;19;20010;-69
2023/09/15 06:10:25;;;;;;;6.25;3.17;;;;;;;9.21;79.06;101716.06;7397285;19;20063;-69
2023/09/15 06:12:54;;;;;;;9.45;5.30;;;;;;;9.23;78.99;101717.78;7397749;19;20011;-70
2023/09/15 06:15:23;;;;;;;5.50;4.07;;;;;;;9.29;79.22;101722.16;7395280;19;20073;-70
2023/09/15 06:17:58;;;;;;;5.32;3.97;;;;;;;9.32;79.16;101719.53;7393363;19;20019;-70
2023/09/15 06:20:33;;;;;;;5.95;4.30;;;;;;;9.37;79.19;101714.31;7396799;19;20525;-68
2023/09/15 06:23:02;;;;;;;8.65;4.35;;;;;;;9.42;79.30;101717.78;7394175;19;20073;-69
2023/09/15 06:25:33;;;;;;;6.88;4.45;;;;;;;9.47;79.43;101716.03;7396981;19;20011;-70
2023/09/15 06:28:02;;;;;;;7.07;5.10;;;;;;;9.52;79.43;101716.03;7397347;19;20015;-70
2023/09/15 06:30:30;;;;;;;6.95;5.65;;;;;;;9.60;79.59;101717.75;7396331;19;20010;-69
2023/09/15 06:32:59;;;;;;;9.63;6.35;;;;;;;9.68;79.74;101711.63;7396081;19;20015;-70
2023/09/15 06:35:27;;;;;;;8.02;6.80;;;;;;;9.75;79.80;101710.72;7396697;19;20014;-69
2023/09/15 06:37:56;;;;;;;8.88;7.47;;;;;;;9.84;80.02;101715.06;7394827;19;20015;-69
2023/09/15 06:40:24;;;;;;;11.02;8.80;;;;;;;9.91;80.20;101719.44;7396143;19;20074;-69
2023/09/15 06:42:55;;;;;;;12.52;9.32;;;;;;;9.98;80.27;101718.50;7394560;19;20018;-69
2023/09/15 06:45:24;;;;;;;11.07;9.93;;;;;;;10.05;80.25;101720.22;7394912;19;20037;-69
2023/09/15 06:47:52;;;;;;;11.60;10.50;;;;;;;10.13;80.36;101717.56;7396001;19;20027;-68
2023/09/15 06:50:21;;;;;;;12.60;11.20;;;;;;;10.21;80.52;101714.91;7395534;19;20481;-69
2023/09/15 06:52:49;;;;;;;12.52;11.23;;;;;;;10.30;80.65;101721.88;7395569;19;20038;-69
2023/09/15 06:55:18;;;;;;;12.68;9.73;;;;;;;10.37;80.67;101708.75;7395489;19;20010;-68
2023/09/15 06:57:46;;;;;;;12.48;11.18;;;;;;;10.46;80.70;101712.22;7394709;19;20023;-69
2023/09/15 07:00:18;;;;;;;12.95;11.13;;;;;;;10.55;80.81;101717.41;7395300;19;20015;-68
2023/09/15 07:02:47;;;;;;;12.18;10.98;;;;;;;10.64;80.78;101714.75;7395713;19;20010;-68
2023/09/15 07:05:15;;;;;;;11.80;9.32;;;;;;;10.73;80.85;101713.81;7395161;19;20014;-69
2023/09/15 07:07:44;;;;;;;12.38;11.07;;;;;;;10.83;80.90;101709.34;7395187;19;20010;-69
2023/09/15 07:10:12;;;;;;;13.15;10.35;;;;;;;10.94;80.89;101711.91;7394790;19;20019;-68
2023/09/15 07:12:41;;;;;;;11.70;8.70;;;;;;;11.04;80.83;101706.53;7394434;19;20014;-70
2023/09/15 07:15:10;;;;;;;12.48;9.30;;;;;;;11.17;80.79;101703.81;7394415;19;20018;-68
2023/09/15 07:17:42;;;;;;;11.25;9.73;;;;;;;11.27;80.63;101705.47;7392942;19;20132;-68
2023/09/15 07:20:11;;;;;;;11.05;9.02;;;;;;;11.37;80.64;101703.63;7395327;19;20014;-70
2023/09/15 07:22:40;;;;;;;9.73;8.80;;;;;;;11.47;80.51;101701.78;7394276;19;20423;-69
2023/09/15 07:25:09;;;;;;;12.20;10.05;;;;;;;11.56;80.35;101709.56;7394764;19;20010;-70
2023/09/15 07:27:37;;;;;;;11.43;9.10;;;;;;;11.67;80.37;101701.59;7395229;19;20018;-69
2023/09/15 07:30:10;;;;;;;10.30;8.70;;;;;;;11.77;80.18;101702.34;7395150;19;20010;-69
2023/09/15 07:32:41;;;;;;;9.50;8.50;;;;;;;11.87;80.14;101709.25;7394338;19;20018;-69
2023/09/15 07:35:12;;;;;;;9.27;8.35;;;;;;;11.97;80.23;101702.16;7394039;19;20487;-70
2023/09/15 07:37:40;;;;;;;11.75;8.02;;;;;;;12.05;80.02;101701.16;7393570;19;20090;-69
2023/09/15 07:40:10;;;;;;;9.43;7.80;;;;;;;12.17;79.98;101700.13;7393549;19;20477;-70
2023/09/15 07:42:40;;;;;;;10.80;9.30;;;;;;;12.26;80.17;101695.63;7394000;19;20023;-71
2023/09/15 07:45:09;;;;;;;10.15;8.40;;;;;;;12.36;80.04;101702.53;7394370;19;20010;-69
2023/09/15 07:47:37;;;;;;;10.27;8.73;;;;;;;12.46;79.90;101701.50;7394631;19;20015;-71
2023/09/15 07:50:09;;;;;;;10.18;8.07;;;;;;;12.58;79.78;101707.47;7394478;19;20031;-70
2023/09/15 07:52:37;;;;;;;9.27;8.35;;;;;;;12.66;79.94;101701.22;7394367;19;20031;-71
2023/09/15 07:55:07;;;;;;;8.27;7.18;;;;;;;12.76;79.88;101695.78;7393766;19;20114;-69
2023/09/15 07:57:37;;;;;;;9.52;7.32;;;;;;;12.86;80.09;101692.13;7392566;19;20359;-69
2023/09/15 08:00:06;;;;;;;8.80;7.10;;;;;;;12.96;79.63;101700.75;7393577;19;20013;-69
2023/09/15 08:02:36;;;;;;;8.85;6.75;;;;;;;13.07;79.60;101698.81;7391847;19;20078;-70
2023/09/15 08:05:04;;;;;;;9.02;6.95;;;;;;;13.17;79.61;101700.38;7393964;19;20014;-70
2023/09/15 08:07:36;;;;;;;6.93;5.97;;;;;;;13.28;79.76;101696.69;7393516;19;20419;-69
2023/09/15 08:10:04;;;;;;;9.95;5.80;;;;;;;13.39;79.70;101701.81;7392223;19;20364;-70
2023/09/15 08:12:32;;;;;;;7.03;6.32;;;;;;;13.46;79.63;101699.03;7394065;19;20035;-70
2023/09/15 08:15:01;;;;;;;6.78;5.93;;;;;;;13.58;79.59;101694.41;7393942;19;20014;-70
2023/09/15 08:17:29;;;;;;;10.23;6.18;;;;;;;13.67;79.55;101699.50;7392789;19;20027;-70
2023/09/15 08:19:58;;;;;;;7.15;5.85;;;;;;;13.77;79.71;101695.78;7394175;19;20036;-70
2023/09/15 08:22:27;;;;;;;6.78;5.13;;;;;;;13.87;79.65;101687.72;7393312;19;20362;-69
2023/09/15 08:24:58;;;;;;;7.10;5.60;;;;;;;13.97;79.45;101681.34;7391511;19;20015;-71
2023/09/15 08:27:29;;;;;;;5.75;4.78;;;;;;;14.07;79.36;101684.66;7394125;19;20027;-69
2023/09/15 08:29:58;;;;;;;6.43;4.57;;;;;;;14.16;79.33;101681.81;7393583;19;20011;-69
2023/09/15 08:32:27;;;;;;;5.22;4.35;;;;;;;14.27;79.14;101674.53;7393323;19;20011;-71
2023/09/15 08:34:57;;;;;;;11.35;6.90;;;;;;;14.37;78.86;101674.31;7391261;19;20014;-70
2023/09/15 08:37:26;;;;;;;8.77;5.00;;;;;;;14.47;78.59;101681.13;7392149;19;20400;-70
2023/09/15 08:39:57;;;;;;;7.82;4.05;;;;;;;14.58;78.68;101673.81;7395022;19;20011;-69
2023/09/15 08:42:29;;;;;;;5.38;4.53;;;;;;;14.71;78.21;101671.78;7401096;19;20018;-70
2023/09/15 08:44:59;;;;;;;11.50;6.18;;;;;;;14.84;78.21;101669.72;7400322;19;20410;-69
2023/09/15 08:47:31;;;;;;;5.75;4.43;;;;;;;14.96;77.74;101671.16;7400601;19;20015;-70
2023/09/15 08:50:03;;;;;;;6.40;4.18;;;;;;;15.06;77.52;101675.31;7400848;19;20018;-70
2023/09/15 08:52:33;;;;;;;4.10;3.28;;;;;;;15.20;76.97;101663.50;7400509;19;20018;-71
2023/09/15 08:55:04;;;;;;;6.00;3.92;;;;;;;15.35;76.47;101671.03;7399902;19;20493;-69
2023/09/15 08:57:33;;;;;;;4.80;3.50;;;;;;;15.50;76.01;101674.19;7399511;19;20018;-70
2023/09/15 09:00:02;;;;;;;4.20;2.55;;;;;;;15.62;75.57;101671.22;7398962;19;20015;-70
2023/09/15 09:02:31;;;;;;;5.43;2.85;;;;;;;15.76;74.76;101671.66;7399410;19;20007;-70
2023/09/15 09:04:59;;;;;;;5.47;3.05;;;;;;;15.89;74.34;101671.34;7399987;19;20031;-69
2023/09/15 09:07:29;;;;;;;3.08;2.72;;;;;;;16.03;73.88;101663.84;7399373;19;20015;-70
2023/09/15 09:09:58;;;;;;;4.32;3.15;;;;;;;16.16;73.33;101667.00;7399614;19;20019;-69
2023/09/15 09:12:29;;;;;;;5.90;2.70;;;;;;;16.28;72.93;101669.28;7399023;19;20074;-69
2023/09/15 09:14:57;;;;;;;3.92;2.97;;;;;;;16.41;72.43;101664.44;7399154;19;20078;-70
2023/09/15 09:17:26;;;;;;;5.85;2.80;;;;;;;16.54;72.18;101666.72;7398457;19;20469;-69
2023/09/15 09:19:54;;;;;;;4.55;2.40;;;;;;;16.65;71.80;101655.78;7399785;19;20042;-69
2023/09/15 09:22:23;;;;;;;3.42;2.33;;;;;;;16.74;71.10;101661.66;7398953;19;20027;-69
2023/09/15 09:24:56;;;;;;;4.57;2.50;;;;;;;16.88;70.63;101655.00;7396192;19;20521;-70
2023/09/15 09:27:24;;;;;;;4.03;2.78;;;;;;;17.01;70.38;101659.03;7397140;19;20021;-69
2023/09/15 09:29:56;;;;;;;4.88;2.40;;;;;;;17.14;69.06;101651.50;7399194;19;20036;-69
2023/09/15 09:32:24;;;;;;;5.43;2.97;;;;;;;17.25;68.69;101646.69;7399287;19;20003;-69
2023/09/15 09:34:53;;;;;;;2.20;1.83;;;;;;;17.35;68.25;101641.94;7395911;19;20498;-67
2023/09/15 09:37:27;;;;;;;3.28;2.20;;;;;;;17.46;67.43;101648.63;7398417;19;20151;-69
2023/09/15 09:39:56;;;;;;;3.70;2.17;;;;;;;17.54;66.84;101641.25;7399219;19;20007;-70
2023/09/15 09:42:28;;;;;;;4.88;2.88;;;;;;;17.63;66.07;101640.03;7398839;19;20035;-70
2023/09/15 09:44:59;;;;;;;3.90;2.30;;;;;;;17.72;65.46;101640.56;7398928;19;20017;-70
2023/09/15 09:47:28;;;;;;;4.43;1.85;;;;;;;17.85;64.92;101640.13;7395942;19;20482;-71
2023/09/15 09:49:57;;;;;;;4.45;2.20;;;;;;;17.96;64.34;101640.59;7398149;19;20482;-70
2023/09/15 09:52:25;;;;;;;3.78;2.38;;;;;;;18.05;63.46;101642.88;7396079;19;20018;-70
2023/09/15 09:54:53;;;;;;;4.20;2.28;;;;;;;18.15;63.44;101642.53;7396155;19;20027;-70
2023/09/15 09:57:22;;;;;;;5.40;1.92;;;;;;;18.25;62.62;101635.94;7397641;19;20432;-70
2023/09/15 09:59:51;;;;;;;4.15;2.15;;;;;;;18.37;61.70;101631.91;7397496;19;20077;-69
2023/09/15 10:02:22;;;;;;;5.25;2.05;;;;;;;18.49;61.69;101631.44;7397802;19;20132;-70
2023/09/15 10:04:50;;;;;;;4.93;2.17;;;;;;;18.58;61.48;101624.88;7395224;19;20028;-69
2023/09/15 10:07:19;;;;;;;5.10;2.15;;;;;;;18.71;60.66;101626.06;7396760;19;20022;-70
2023/09/15 10:09:49;;;;;;;4.22;2.50;;;;;;;18.83;60.27;101622.03;7395673;19;20018;-69
2023/09/15 10:12:17;;;;;;;3.85;2.13;;;;;;;18.93;59.61;101614.56;7395419;19;20486;-69
2023/09/15 10:14:46;;;;;;;4.65;2.00;;;;;;;19.02;59.10;101616.81;7395610;19;20028;-69
2023/09/15 10:17:15;;;;;;;7.07;2.45;;;;;;;19.12;59.01;101613.75;7397673;19;20014;-70
2023/09/15 10:19:48;;;;;;;3.13;2.20;;;;;;;19.20;58.11;101608.97;7395401;19;20022;-70
2023/09/15 10:22:18;;;;;;;5.72;2.38;;;;;;;19.28;58.30;101604.16;7397550;19;20108;-70
2023/09/15 10:24:48;;;;;;;4.72;2.20;;;;;;;19.36;57.67;101598.50;7395344;19;20011;-70
2023/09/15 10:27:17;;;;;;;5.25;2.72;;;;;;;19.45;57.07;101597.22;7398208;19;20027;-71
2023/09/15 10:29:46;;;;;;;3.97;1.92;;;;;;;19.53;56.76;101598.59;7395757;19;20034;-69
2023/09/15 10:32:18;;;;;;;3.15;2.33;;;;;;;19.62;56.25;101599.97;7396683;19;20014;-69
2023/09/15 10:34:51;;;;;;;2.97;2.00;;;;;;;19.70;56.17;101596.94;7395716;19;20409;-69
2023/09/15 10:37:19;;;;;;;2.60;2.00;;;;;;;19.79;56.01;101600.97;7397182;19;20018;-70
2023/09/15 10:39:48;;;;;;;3.45;2.17;;;;;;;19.82;55.62;101591.09;7395303;19;20485;-70
2023/09/15 10:42:16;;;;;;;3.90;2.10;;;;;;;19.84;55.08;101597.22;7394937;19;20498;-70
2023/09/15 10:44:45;;;;;;;3.38;2.20;;;;;;;19.88;54.96;101597.94;7395049;19;20031;-68
2023/09/15 10:47:18;;;;;;;4.70;2.33;;;;;;;19.94;54.79;101594.09;7397462;19;20039;-69
2023/09/15 10:49:56;;;;;;;2.55;2.00;;;;;;;20.00;54.40;101591.16;7397543;19;20039;-70
2023/09/15 10:52:34;;;;;;;4.05;1.80;;;;;;;20.09;54.51;101584.50;7397510;19;20050;-71
2023/09/15 10:55:03;;;;;;;4.22;2.20;;;;;;;20.15;54.72;101585.06;7396115;19;20017;-70
2023/09/15 10:57:36;;;;;;;3.35;2.10;;;;;;;20.23;54.33;101581.19;7395090;19;20006;-71
2023/09/15 11:00:07;;;;;;;4.00;2.47;;;;;;;20.29;54.29;101571.06;7395644;19;20019;-71
2023/09/15 11:02:39;;;;;;;5.05;2.45;;;;;;;20.37;53.99;101576.00;7394920;19;20425;-71
2023/09/15 11:05:10;;;;;;;4.65;2.30;;;;;;;20.43;53.33;101575.72;7401298;19;20013;-70
2023/09/15 11:07:39;;;;;;;3.72;1.73;;;;;;;20.48;53.77;101568.34;7397514;19;20014;-70
2023/09/15 11:10:08;;;;;;;4.30;2.33;;;;;;;20.51;53.30;101572.69;7394723;19;20014;-70
2023/09/15 11:12:37;;;;;;;3.13;1.90;;;;;;;20.52;53.49;101571.72;7394446;19;20474;-71
2023/09/15 11:15:06;;;;;;;4.55;2.22;;;;;;;20.54;53.09;101575.19;7394202;19;20011;-72
2023/09/15 11:17:35;;;;;;;3.25;2.05;;;;;;;20.55;52.75;101563.59;7394816;19;20018;-72
2023/09/15 11:20:05;;;;;;;5.38;2.08;;;;;;;20.60;52.82;101574.00;7396248;19;20014;-72
2023/09/15 11:22:40;;;;;;;4.30;2.33;;;;;;;20.62;52.31;101564.97;7400334;19;20011;-71
2023/09/15 11:25:11;;;;;;;6.22;2.40;;;;;;;20.61;52.13;101565.94;7394705;19;20027;-72
2023/09/15 11:27:39;;;;;;;2.50;1.92;;;;;;;20.66;52.12;101561.22;7393165;19;20023;-70
2023/09/15 11:30:11;;;;;;;3.17;1.90;;;;;;;20.71;51.95;101561.00;7393342;19;20031;-72
2023/09/15 11:32:40;;;;;;;3.08;2.30;;;;;;;20.77;51.95;101554.50;7394522;19;20007;-70
2023/09/15 11:35:12;;;;;;;2.08;1.60;;;;;;;20.81;51.14;101551.63;7393886;19;20023;-72
2023/09/15 11:37:44;;;;;;;5.20;2.35;;;;;;;20.90;50.99;101554.72;7393881;19;20022;-71
2023/09/15 11:40:22;;;;;;;3.40;2.33;;;;;;;20.98;51.16;101556.03;7396935;19;20081;-71